Time;durP1;ratioP1;P1;durP2;ratioP2;P2;SDS_P1;SDS_P2;PMS_P1;PMS_P2;Temp;Humidity;BMP_temperature;BMP_pressure;BME280_temperature;BME280_humidity;BME280_pressure;Samples;Min_cycle;Max_cycle;Signal;HPM_P1;HPM_P2
2022/04/10 00:00:40;;;;;;;3.17;1.77;;;;;;;;;;5060360;28;20518;-81
2022/04/10 00:03:06;;;;;;;4.03;1.45;;;;;;;;;;5077201;28;20149;-82
2022/04/10 00:05:32;;;;;;;4.00;1.30;;;;;;;;;;5078370;28;20110;-81
2022/04/10 00:07:57;;;;;;;2.03;1.27;;;;;;;;;;5060480;28;20031;-81
2022/04/10 00:10:23;;;;;;;3.40;1.40;;;;;;;;;;5095987;28;20028;-81
2022/04/10 00:12:48;;;;;;;2.92;1.38;;;;;;;;;;5095537;28;20020;-82
2022/04/10 00:15:14;;;;;;;3.72;1.20;;;;;;;;;;5095315;28;20367;-81
2022/04/10 00:17:40;;;;;;;3.13;1.40;;;;;;;;;;5042952;28;20035;-81
2022/04/10 00:20:06;;;;;;;3.20;1.15;;;;;;;;;;5077345;28;20021;-81
2022/04/10 00:22:42;;;;;;;5.22;1.17;;;;;;;;;;5060310;28;20028;-81
2022/04/10 00:25:09;;;;;;;2.95;1.20;;;;;;;;;;5076849;28;20059;-81
2022/04/10 00:27:34;;;;;;;2.55;1.30;;;;;;;;;;5094758;28;20077;-81
2022/04/10 00:29:59;;;;;;;3.67;1.33;;;;;;;;;;5094775;28;20028;-81
2022/04/10 00:32:27;;;;;;;2.40;1.20;;;;;;;;;;5059818;28;20028;-81
2022/04/10 00:34:52;;;;;;;2.05;1.33;;;;;;;;;;5060396;28;20028;-81
2022/04/10 00:37:17;;;;;;;6.50;1.27;;;;;;;;;;5077022;28;20036;-81
2022/04/10 00:39:43;;;;;;;3.85;1.20;;;;;;;;;;5076526;28;20059;-81
2022/04/10 00:42:08;;;;;;;2.80;1.05;;;;;;;;;;5094850;28;20390;-81
2022/04/10 00:44:34;;;;;;;2.35;1.17;;;;;;;;;;5043285;28;20031;-81
2022/04/10 00:47:00;;;;;;;2.97;1.35;;;;;;;;;;5094725;28;20197;-81
2022/04/10 00:49:25;;;;;;;3.10;1.35;;;;;;;;;;5059560;28;20024;-81
2022/04/10 00:51:52;;;;;;;3.35;1.30;;;;;;;;;;5076324;28;20075;-81
2022/04/10 00:54:20;;;;;;;2.47;1.17;;;;;;;;;;5094883;28;20028;-81
2022/04/10 00:56:46;;;;;;;3.10;1.15;;;;;;;;;;5059394;28;20020;-81
2022/04/10 00:59:12;;;;;;;4.28;1.33;;;;;;;;;;5059298;28;20031;-81
2022/04/10 01:01:38;;;;;;;3.17;1.38;;;;;;;;;;5059312;28;20039;-81
2022/04/10 01:04:05;;;;;;;2.40;1.15;;;;;;;;;;5059058;28;20024;-82
2022/04/10 01:06:32;;;;;;;1.90;1.20;;;;;;;;;;5059753;28;20032;-81
2022/04/10 01:08:58;;;;;;;3.17;1.20;;;;;;;;;;5076098;28;20027;-81
2022/04/10 01:11:23;;;;;;;3.40;1.20;;;;;;;;;;5058993;28;20020;-81
2022/04/10 01:13:49;;;;;;;3.83;1.30;;;;;;;;;;5042566;28;20028;-82
2022/04/10 01:16:14;;;;;;;1.98;1.05;;;;;;;;;;5076249;28;20455;-82
2022/04/10 01:18:40;;;;;;;4.00;1.23;;;;;;;;;;5094114;28;20039;-81
2022/04/10 01:21:07;;;;;;;2.35;1.00;;;;;;;;;;5075575;28;20028;-81
2022/04/10 01:23:32;;;;;;;2.08;1.00;;;;;;;;;;5072052;28;20052;-81
2022/04/10 01:25:58;;;;;;;3.95;1.10;;;;;;;;;;5055893;28;20392;-81
2022/04/10 01:28:23;;;;;;;1.90;1.00;;;;;;;;;;5055639;28;20048;-81
2022/04/10 01:30:49;;;;;;;1.83;1.40;;;;;;;;;;5072616;28;20025;-81
2022/04/10 01:33:14;;;;;;;2.70;1.10;;;;;;;;;;5073869;28;20032;-81
2022/04/10 01:35:40;;;;;;;1.90;1.17;;;;;;;;;;5055392;28;20039;-81
2022/04/10 01:38:06;;;;;;;2.72;1.23;;;;;;;;;;5055271;28;20028;-80
2022/04/10 01:40:33;;;;;;;1.48;0.98;;;;;;;;;;5055132;28;20024;-81
2022/04/10 01:42:58;;;;;;;0.90;0.88;;;;;;;;;;5039045;28;20037;-81
2022/04/10 01:45:24;;;;;;;2.58;1.15;;;;;;;;;;5055248;28;20044;-81
2022/04/10 01:47:52;;;;;;;3.03;1.65;;;;;;;;;;5071743;28;20043;-81
2022/04/10 01:50:19;;;;;;;1.98;0.98;;;;;;;;;;5072065;28;20375;-81
2022/04/10 01:52:45;;;;;;;2.15;1.17;;;;;;;;;;5073234;28;20035;-81
2022/04/10 01:55:10;;;;;;;1.55;1.02;;;;;;;;;;5071536;28;20395;-81
2022/04/10 01:57:36;;;;;;;3.28;1.20;;;;;;;;;;5073315;28;20029;-81
2022/04/10 02:00:04;;;;;;;2.53;1.10;;;;;;;;;;5072057;28;20411;-81
2022/04/10 02:02:29;;;;;;;2.63;1.30;;;;;;;;;;5071509;28;20031;-81
2022/04/10 02:04:54;;;;;;;4.47;1.05;;;;;;;;;;5054842;28;20383;-82
2022/04/10 02:07:20;;;;;;;3.00;0.90;;;;;;;;;;5072825;28;20036;-81
2022/04/10 02:09:45;;;;;;;2.80;1.05;;;;;;;;;;5071839;28;20024;-82
2022/04/10 02:12:11;;;;;;;2.17;1.08;;;;;;;;;;5073357;28;20054;-81
2022/04/10 02:14:36;;;;;;;2.08;1.17;;;;;;;;;;5072843;28;20029;-81
2022/04/10 02:17:02;;;;;;;2.53;1.27;;;;;;;;;;5072849;28;20035;-81
2022/04/10 02:19:27;;;;;;;2.10;0.98;;;;;;;;;;5072966;28;20035;-81
2022/04/10 02:21:55;;;;;;;2.22;1.08;;;;;;;;;;5071824;28;20111;-81
2022/04/10 02:24:20;;;;;;;3.45;1.30;;;;;;;;;;5083488;28;20052;-80
2022/04/10 02:26:45;;;;;;;2.47;1.48;;;;;;;;;;5074815;28;20539;-80
2022/04/10 02:29:11;;;;;;;4.70;1.63;;;;;;;;;;5092895;28;20497;-81
2022/04/10 02:31:36;;;;;;;2.22;1.02;;;;;;;;;;5058031;28;20036;-80
2022/04/10 02:34:01;;;;;;;3.60;0.95;;;;;;;;;;5058369;28;20036;-81
2022/04/10 02:36:27;;;;;;;2.17;1.02;;;;;;;;;;5074802;28;20119;-81
2022/04/10 02:38:52;;;;;;;1.60;0.93;;;;;;;;;;5075144;28;20119;-80
2022/04/10 02:41:18;;;;;;;9.65;1.80;;;;;;;;;;5097390;28;20040;-81
2022/04/10 02:43:43;;;;;;;2.20;1.00;;;;;;;;;;5062032;28;20039;-81
2022/04/10 02:46:08;;;;;;;1.95;0.90;;;;;;;;;;5097111;28;20032;-81
2022/04/10 02:48:34;;;;;;;0.98;0.93;;;;;;;;;;5078731;28;20032;-81
2022/04/10 02:50:59;;;;;;;2.20;1.00;;;;;;;;;;5061973;28;20020;-81
2022/04/10 02:53:25;;;;;;;2.40;1.20;;;;;;;;;;5078413;28;20372;-81
2022/04/10 02:55:50;;;;;;;2.78;1.25;;;;;;;;;;5061637;28;20122;-81
2022/04/10 02:58:16;;;;;;;2.38;1.00;;;;;;;;;;5096783;28;20543;-81
2022/04/10 03:00:41;;;;;;;2.13;1.17;;;;;;;;;;5078146;28;20035;-81
2022/04/10 03:03:06;;;;;;;2.00;1.23;;;;;;;;;;5096707;28;20394;-81
2022/04/10 03:05:32;;;;;;;3.90;1.50;;;;;;;;;;5044762;28;20166;-81
2022/04/10 03:07:57;;;;;;;2.03;1.02;;;;;;;;;;5061375;28;20032;-81
2022/04/10 03:10:22;;;;;;;2.08;1.10;;;;;;;;;;5078806;28;20027;-81
2022/04/10 03:12:48;;;;;;;2.17;1.35;;;;;;;;;;5061406;28;20085;-81
2022/04/10 03:15:13;;;;;;;2.30;1.08;;;;;;;;;;5096767;28;20102;-81
2022/04/10 03:17:39;;;;;;;2.72;0.93;;;;;;;;;;5096463;28;20043;-81
2022/04/10 03:20:05;;;;;;;1.67;1.00;;;;;;;;;;5077974;28;20024;-81
2022/04/10 03:22:31;;;;;;;2.53;1.00;;;;;;;;;;5096141;28;20032;-81
2022/04/10 03:24:56;;;;;;;1.10;1.00;;;;;;;;;;5077881;28;20048;-81
2022/04/10 03:27:21;;;;;;;1.90;1.00;;;;;;;;;;5078918;28;20106;-81
2022/04/10 03:29:47;;;;;;;2.63;0.90;;;;;;;;;;5077738;28;20027;-81
2022/04/10 03:32:12;;;;;;;3.05;1.42;;;;;;;;;;5078076;28;20486;-81
2022/04/10 03:34:38;;;;;;;2.67;1.15;;;;;;;;;;5061619;28;20036;-81
2022/04/10 03:37:03;;;;;;;4.30;1.48;;;;;;;;;;5096464;28;20054;-81
2022/04/10 03:39:29;;;;;;;2.20;1.00;;;;;;;;;;5077815;28;20032;-81
2022/04/10 03:41:54;;;;;;;1.33;0.90;;;;;;;;;;5095684;28;20051;-80
2022/04/10 03:44:20;;;;;;;3.15;1.20;;;;;;;;;;5096175;28;20512;-81
2022/04/10 03:46:45;;;;;;;2.05;1.05;;;;;;;;;;5095576;28;20123;-81
2022/04/10 03:49:10;;;;;;;1.08;0.93;;;;;;;;;;5078065;28;20028;-81
2022/04/10 03:51:36;;;;;;;3.22;0.98;;;;;;;;;;5094770;28;20028;-81
2022/04/10 03:54:01;;;;;;;5.15;1.20;;;;;;;;;;5077783;28;20028;-81
2022/04/10 03:56:27;;;;;;;3.35;1.20;;;;;;;;;;5077275;28;20028;-81
2022/04/10 03:58:52;;;;;;;3.78;1.02;;;;;;;;;;5095461;28;20108;-81
2022/04/10 04:01:17;;;;;;;2.30;1.10;;;;;;;;;;5060438;28;20048;-80
2022/04/10 04:03:43;;;;;;;1.65;1.10;;;;;;;;;;5060446;28;20032;-80
2022/04/10 04:06:08;;;;;;;1.92;1.15;;;;;;;;;;5095280;28;20040;-81
2022/04/10 04:08:33;;;;;;;2.13;1.08;;;;;;;;;;5060379;28;20085;-82
2022/04/10 04:10:59;;;;;;;1.40;1.05;;;;;;;;;;5060539;28;20042;-81
2022/04/10 04:13:25;;;;;;;2.45;1.27;;;;;;;;;;5095194;28;20050;-81
2022/04/10 04:15:51;;;;;;;3.13;1.15;;;;;;;;;;5077113;28;20051;-81
2022/04/10 04:18:16;;;;;;;3.67;1.30;;;;;;;;;;5077320;28;20528;-81
2022/04/10 04:20:42;;;;;;;3.42;1.45;;;;;;;;;;5076862;28;20035;-81
2022/04/10 04:23:07;;;;;;;2.20;1.05;;;;;;;;;;5076747;28;20073;-81
2022/04/10 04:25:33;;;;;;;1.98;1.20;;;;;;;;;;5095227;28;20363;-80
2022/04/10 04:27:58;;;;;;;4.82;1.27;;;;;;;;;;5043668;28;20084;-81
2022/04/10 04:30:24;;;;;;;1.63;1.20;;;;;;;;;;5076977;28;20020;-81
2022/04/10 04:32:50;;;;;;;5.65;1.30;;;;;;;;;;5060837;28;20443;-81
2022/04/10 04:35:16;;;;;;;3.47;1.10;;;;;;;;;;5077115;28;20105;-81
2022/04/10 04:37:42;;;;;;;8.80;1.20;;;;;;;;;;5060368;28;20063;-81
2022/04/10 04:40:09;;;;;;;3.67;1.02;;;;;;;;;;5060548;28;20054;-81
2022/04/10 04:42:34;;;;;;;3.47;1.20;;;;;;;;;;5060386;28;20028;-81
2022/04/10 04:45:00;;;;;;;2.15;1.00;;;;;;;;;;5095350;28;20059;-81
2022/04/10 04:47:25;;;;;;;4.10;1.40;;;;;;;;;;5076992;28;20035;-81
2022/04/10 04:49:50;;;;;;;3.08;1.20;;;;;;;;;;5076868;28;20390;-81
2022/04/10 04:52:16;;;;;;;1.92;0.95;;;;;;;;;;5076713;28;20036;-81
2022/04/10 04:54:42;;;;;;;2.35;1.00;;;;;;;;;;5076735;28;20070;-81
2022/04/10 04:57:08;;;;;;;4.22;1.02;;;;;;;;;;5076745;28;20398;-81
2022/04/10 04:59:33;;;;;;;3.10;1.25;;;;;;;;;;5076752;28;20024;-81
2022/04/10 05:01:59;;;;;;;5.95;1.00;;;;;;;;;;5076268;28;20027;-81
2022/04/10 05:04:24;;;;;;;2.35;1.13;;;;;;;;;;5094922;28;20027;-81
2022/04/10 05:06:50;;;;;;;2.90;1.30;;;;;;;;;;5076907;28;20089;-81
2022/04/10 05:09:15;;;;;;;2.83;1.10;;;;;;;;;;5059991;28;20036;-81
2022/04/10 05:11:40;;;;;;;6.63;1.40;;;;;;;;;;5076812;28;20081;-81
2022/04/10 05:14:06;;;;;;;3.30;1.27;;;;;;;;;;5076450;28;20025;-81
2022/04/10 05:16:32;;;;;;;3.25;1.15;;;;;;;;;;5059620;28;20394;-81
2022/04/10 05:18:57;;;;;;;6.25;1.63;;;;;;;;;;5059684;28;20024;-82
2022/04/10 05:21:22;;;;;;;4.88;1.30;;;;;;;;;;5059558;28;20036;-81
2022/04/10 05:23:48;;;;;;;2.50;1.10;;;;;;;;;;5059447;28;20056;-81
2022/04/10 05:26:13;;;;;;;3.38;1.65;;;;;;;;;;5076304;28;20395;-81
2022/04/10 05:28:39;;;;;;;2.33;1.20;;;;;;;;;;5076368;28;20047;-81
2022/04/10 05:31:04;;;;;;;1.83;1.15;;;;;;;;;;5094468;28;20055;-81
2022/04/10 05:33:33;;;;;;;2.30;1.10;;;;;;;;;;5094468;28;20106;-81
2022/04/10 05:35:58;;;;;;;2.70;1.15;;;;;;;;;;5076374;28;20020;-81
2022/04/10 05:38:24;;;;;;;2.60;1.20;;;;;;;;;;5059645;28;20363;-81
2022/04/10 05:40:53;;;;;;;7.50;1.58;;;;;;;;;;5075957;28;20106;-81
2022/04/10 05:43:22;;;;;;;2.22;1.20;;;;;;;;;;5060248;28;20062;-82
2022/04/10 05:45:48;;;;;;;6.05;1.52;;;;;;;;;;5094540;28;20028;-81
2022/04/10 05:48:14;;;;;;;2.05;1.50;;;;;;;;;;5094323;28;20035;-82
2022/04/10 05:50:39;;;;;;;2.75;1.77;;;;;;;;;;5059055;28;20020;-81
2022/04/10 05:53:05;;;;;;;3.28;1.70;;;;;;;;;;5075809;28;20027;-81
2022/04/10 05:55:31;;;;;;;3.00;1.52;;;;;;;;;;5058973;28;20038;-81
2022/04/10 05:57:56;;;;;;;3.63;1.73;;;;;;;;;;5058912;28;20038;-81
2022/04/10 06:00:23;;;;;;;3.47;1.58;;;;;;;;;;5075651;28;20029;-81
2022/04/10 06:02:49;;;;;;;5.07;1.95;;;;;;;;;;5075994;28;20115;-81
2022/04/10 06:05:14;;;;;;;4.38;1.58;;;;;;;;;;5059169;28;20119;-81
2022/04/10 06:07:40;;;;;;;3.20;1.50;;;;;;;;;;5058959;28;20036;-81
2022/04/10 06:10:06;;;;;;;3.47;1.50;;;;;;;;;;5075939;28;20048;-81
2022/04/10 06:12:31;;;;;;;2.42;1.52;;;;;;;;;;5075577;28;20105;-81
2022/04/10 06:14:56;;;;;;;3.03;1.45;;;;;;;;;;5074883;28;20039;-81
2022/04/10 06:17:22;;;;;;;2.08;1.27;;;;;;;;;;5093632;28;20044;-81
2022/04/10 06:19:47;;;;;;;22.65;1.70;;;;;;;;;;5042090;28;20024;-81
2022/04/10 06:22:14;;;;;;;4.18;1.60;;;;;;;;;;5075389;28;20035;-81
2022/04/10 06:24:40;;;;;;;2.60;1.48;;;;;;;;;;5093476;28;20048;-81
2022/04/10 06:27:06;;;;;;;3.13;1.50;;;;;;;;;;5059063;28;20105;-81
2022/04/10 06:29:31;;;;;;;2.40;1.10;;;;;;;;;;5093488;28;20474;-81
2022/04/10 06:31:57;;;;;;;2.83;1.23;;;;;;;;;;5076023;28;20024;-80
2022/04/10 06:34:22;;;;;;;2.28;1.10;;;;;;;;;;5059764;28;20028;-81
2022/04/10 06:36:48;;;;;;;1.83;1.30;;;;;;;;;;5094705;28;20028;-81
2022/04/10 06:39:15;;;;;;;2.28;1.10;;;;;;;;;;5094401;28;20039;-79
2022/04/10 06:41:41;;;;;;;1.30;1.10;;;;;;;;;;5078734;28;20020;-81
2022/04/10 06:44:07;;;;;;;3.53;1.70;;;;;;;;;;5058710;28;20431;-81
2022/04/10 06:46:33;;;;;;;2.88;1.10;;;;;;;;;;5075155;28;20059;-83
2022/04/10 06:48:58;;;;;;;4.63;1.23;;;;;;;;;;5065610;28;20070;-83
2022/04/10 06:51:24;;;;;;;1.55;1.15;;;;;;;;;;5059900;28;20490;-83
2022/04/10 06:53:49;;;;;;;1.27;1.00;;;;;;;;;;5042486;28;20028;-83
2022/04/10 06:56:15;;;;;;;2.63;1.38;;;;;;;;;;5063648;28;20097;-83
2022/04/10 06:58:41;;;;;;;9.73;1.33;;;;;;;;;;5060520;28;20066;-83
2022/04/10 07:01:07;;;;;;;1.35;1.17;;;;;;;;;;5059442;28;20487;-83
2022/04/10 07:03:33;;;;;;;2.50;1.25;;;;;;;;;;5060099;28;20030;-83
2022/04/10 07:05:58;;;;;;;2.67;1.02;;;;;;;;;;5060478;28;20027;-84
2022/04/10 07:08:24;;;;;;;6.05;1.00;;;;;;;;;;5077472;28;20119;-83
2022/04/10 07:10:50;;;;;;;6.85;1.67;;;;;;;;;;5060359;28;20372;-82
2022/04/10 07:13:21;;;;;;;8.88;1.10;;;;;;;;;;5077638;28;20036;-82
2022/04/10 07:15:52;;;;;;;2.58;1.00;;;;;;;;;;5043518;28;20024;-82
2022/04/10 07:18:18;;;;;;;4.00;1.27;;;;;;;;;;5061226;28;20024;-83
2022/04/10 07:20:44;;;;;;;7.57;1.10;;;;;;;;;;5062756;28;20039;-81
2022/04/10 07:25:53;;;;;;;9.55;1.40;;;;;;;;;;5085050;28;20051;-80
2022/04/10 07:28:19;;;;;;;4.15;1.10;;;;;;;;;;5080840;28;20028;-82
2022/04/10 07:30:45;;;;;;;1.55;1.10;;;;;;;;;;5099747;28;20028;-83
2022/04/10 07:33:11;;;;;;;4.90;0.95;;;;;;;;;;5099755;28;20081;-83
2022/04/10 07:35:40;;;;;;;3.28;1.10;;;;;;;;;;5099622;28;20062;-81
2022/04/10 07:38:06;;;;;;;2.58;1.30;;;;;;;;;;5062106;28;20038;-82
2022/04/10 07:40:31;;;;;;;1.40;1.10;;;;;;;;;;5098157;28;20036;-82
2022/04/10 07:42:57;;;;;;;2.83;1.60;;;;;;;;;;5079579;28;20032;-84
2022/04/10 07:48:07;;;;;;;2.17;1.13;;;;;;;;;;5082333;28;20061;-83
2022/04/10 07:50:32;;;;;;;4.07;1.20;;;;;;;;;;5061638;28;20056;-82
2022/04/10 07:52:58;;;;;;;1.88;1.13;;;;;;;;;;5078076;28;20024;-82
2022/04/10 07:55:25;;;;;;;1.92;0.98;;;;;;;;;;5096607;28;20028;-82
2022/04/10 07:57:51;;;;;;;2.88;1.13;;;;;;;;;;5063538;28;20032;-83
2022/04/10 08:00:17;;;;;;;1.05;0.80;;;;;;;;;;5078788;28;20450;-83
2022/04/10 08:02:46;;;;;;;2.65;1.67;;;;;;;;;;5078872;28;20024;-84
2022/04/10 08:05:15;;;;;;;3.63;1.30;;;;;;;;;;5077906;28;20020;-84
2022/04/10 08:07:43;;;;;;;3.60;1.25;;;;;;;;;;5095763;28;20038;-83
2022/04/10 08:10:08;;;;;;;5.25;1.30;;;;;;;;;;5061847;28;20028;-84
2022/04/10 08:12:34;;;;;;;3.92;1.00;;;;;;;;;;5060906;28;20047;-83
2022/04/10 08:15:00;;;;;;;3.67;1.13;;;;;;;;;;5078018;28;20028;-84
2022/04/10 08:17:25;;;;;;;7.00;1.10;;;;;;;;;;5077959;28;20020;-82
2022/04/10 08:19:50;;;;;;;11.73;1.63;;;;;;;;;;5078446;28;20064;-87
2022/04/10 08:22:23;;;;;;;8.88;2.58;;;;;;;;;;5044577;28;20050;-83
2022/04/10 08:24:48;;;;;;;17.23;3.60;;;;;;;;;;5096034;28;20070;-85
2022/04/10 08:27:14;;;;;;;18.92;4.07;;;;;;;;;;5077464;28;20474;-83
2022/04/10 08:29:39;;;;;;;11.95;4.05;;;;;;;;;;5077918;28;20051;-84
2022/04/10 08:32:05;;;;;;;11.95;3.25;;;;;;;;;;5061072;28;20356;-83
2022/04/10 08:34:30;;;;;;;12.60;2.97;;;;;;;;;;5077648;28;20040;-81
2022/04/10 08:36:56;;;;;;;10.57;2.80;;;;;;;;;;5076794;28;20123;-82
2022/04/10 08:39:23;;;;;;;9.63;2.28;;;;;;;;;;5061497;28;20177;-82
2022/04/10 08:41:50;;;;;;;8.98;2.70;;;;;;;;;;5077597;28;20073;-83
2022/04/10 08:44:16;;;;;;;7.50;3.05;;;;;;;;;;5095308;28;20028;-83
2022/04/10 08:46:42;;;;;;;10.27;2.72;;;;;;;;;;5061144;28;20028;-84
2022/04/10 08:49:08;;;;;;;8.65;2.95;;;;;;;;;;5043914;28;20035;-84
2022/04/10 08:51:33;;;;;;;7.18;2.33;;;;;;;;;;5095085;28;20030;-86
2022/04/10 08:54:00;;;;;;;8.57;2.33;;;;;;;;;;5095338;28;20042;-85
2022/04/10 08:56:26;;;;;;;8.45;2.42;;;;;;;;;;5077831;28;20051;-84
2022/04/10 08:58:51;;;;;;;5.53;1.88;;;;;;;;;;5095120;28;20020;-83
2022/04/10 09:01:19;;;;;;;6.38;2.13;;;;;;;;;;5077163;28;20032;-82
2022/04/10 09:03:46;;;;;;;4.32;1.88;;;;;;;;;;5076942;28;20028;-82
2022/04/10 09:06:12;;;;;;;8.85;2.20;;;;;;;;;;5076844;28;20028;-84
2022/04/10 09:08:38;;;;;;;7.20;2.22;;;;;;;;;;5059909;28;20032;-84
2022/04/10 09:11:08;;;;;;;6.70;2.80;;;;;;;;;;5076717;28;20023;-84
2022/04/10 09:13:36;;;;;;;6.03;1.75;;;;;;;;;;5076435;28;20024;-83
2022/04/10 09:16:07;;;;;;;7.95;1.85;;;;;;;;;;5076371;28;20491;-83
2022/04/10 09:18:45;;;;;;;9.00;2.28;;;;;;;;;;5094780;28;20027;-83
2022/04/10 09:21:11;;;;;;;6.50;1.73;;;;;;;;;;5076114;28;20024;-82
2022/04/10 09:23:36;;;;;;;4.45;1.70;;;;;;;;;;5094471;28;20080;-82
2022/04/10 09:26:02;;;;;;;8.82;1.58;;;;;;;;;;5076268;28;20081;-84
2022/04/10 09:28:44;;;;;;;6.75;2.28;;;;;;;;;;5094675;28;20039;-83
2022/04/10 09:31:29;;;;;;;6.43;1.40;;;;;;;;;;5076514;28;20489;-83
2022/04/10 09:33:56;;;;;;;3.50;1.50;;;;;;;;;;5094797;28;20040;-84
2022/04/10 09:36:41;;;;;;;2.65;1.60;;;;;;;;;;5059254;28;20035;-85
2022/04/10 09:39:14;;;;;;;3.95;1.42;;;;;;;;;;5079317;28;20116;-81
2022/04/10 09:41:42;;;;;;;3.65;1.63;;;;;;;;;;5095114;28;20032;-84
2022/04/10 09:44:19;;;;;;;3.92;1.63;;;;;;;;;;5076012;28;20459;-84
2022/04/10 09:46:56;;;;;;;5.82;1.75;;;;;;;;;;5075872;28;20039;-84
2022/04/10 09:49:22;;;;;;;2.97;1.30;;;;;;;;;;5076289;28;20419;-84
2022/04/10 09:51:57;;;;;;;2.97;1.23;;;;;;;;;;5076450;28;20043;-85
2022/04/10 09:54:22;;;;;;;2.67;1.27;;;;;;;;;;5076394;28;20024;-84
2022/04/10 09:56:49;;;;;;;2.63;1.38;;;;;;;;;;5094671;28;20076;-83
2022/04/10 09:59:17;;;;;;;3.50;1.40;;;;;;;;;;5094021;28;20074;-83
2022/04/10 10:01:43;;;;;;;5.60;1.58;;;;;;;;;;5093802;28;20089;-83
2022/04/10 10:04:08;;;;;;;2.15;1.00;;;;;;;;;;5075763;28;20115;-84
2022/04/10 10:06:36;;;;;;;7.82;1.48;;;;;;;;;;5076178;28;20028;-83
2022/04/10 10:09:02;;;;;;;1.42;0.93;;;;;;;;;;5077197;28;20033;-83
2022/04/10 10:11:27;;;;;;;6.80;1.45;;;;;;;;;;5094437;28;20534;-84
2022/04/10 10:13:53;;;;;;;4.55;1.27;;;;;;;;;;5076366;28;20055;-84
2022/04/10 10:16:18;;;;;;;6.38;1.33;;;;;;;;;;5075618;28;20475;-84
2022/04/10 10:18:45;;;;;;;10.55;1.63;;;;;;;;;;5059693;28;20035;-85
2022/04/10 10:21:11;;;;;;;2.58;1.10;;;;;;;;;;5093738;28;20446;-81
2022/04/10 10:23:40;;;;;;;4.30;1.30;;;;;;;;;;5076479;28;20048;-82
2022/04/10 10:26:41;;;;;;;3.15;0.98;;;;;;;;;;5058678;28;20384;-82
2022/04/10 10:29:21;;;;;;;2.33;1.23;;;;;;;;;;5076116;28;20020;-83
2022/04/10 10:32:08;;;;;;;3.88;1.00;;;;;;;;;;5075650;28;20077;-84
2022/04/10 10:34:34;;;;;;;7.30;1.15;;;;;;;;;;5093954;28;20026;-84
2022/04/10 10:37:03;;;;;;;7.38;1.20;;;;;;;;;;5093750;28;20020;-83
2022/04/10 10:39:30;;;;;;;1.73;1.05;;;;;;;;;;5075478;28;20421;-84
2022/04/10 10:42:09;;;;;;;2.65;1.00;;;;;;;;;;5058831;28;20028;-83
2022/04/10 10:44:34;;;;;;;1.88;1.10;;;;;;;;;;5075483;28;20024;-84
2022/04/10 10:47:02;;;;;;;5.05;1.30;;;;;;;;;;5093827;28;20031;-83
2022/04/10 10:49:31;;;;;;;4.03;1.35;;;;;;;;;;5093436;28;20028;-84
2022/04/10 10:51:58;;;;;;;2.75;1.20;;;;;;;;;;5076261;28;20036;-83
2022/04/10 10:54:34;;;;;;;3.05;1.20;;;;;;;;;;5075680;28;20119;-84
2022/04/10 10:57:22;;;;;;;1.83;1.05;;;;;;;;;;5075575;28;20016;-83
2022/04/10 10:59:50;;;;;;;2.28;1.40;;;;;;;;;;5094700;28;20032;-83
2022/04/10 11:02:19;;;;;;;3.60;1.30;;;;;;;;;;5104635;28;20035;-83
2022/04/10 11:04:52;;;;;;;2.10;0.88;;;;;;;;;;5086944;28;20029;-83
2022/04/10 11:07:18;;;;;;;2.90;1.13;;;;;;;;;;5071667;28;20050;-84
2022/04/10 11:09:58;;;;;;;1.50;0.90;;;;;;;;;;5083046;28;20089;-84
2022/04/10 11:12:30;;;;;;;1.63;0.95;;;;;;;;;;5099268;28;20024;-84
2022/04/10 11:14:56;;;;;;;6.25;1.20;;;;;;;;;;5062723;28;20048;-83
2022/04/10 11:17:32;;;;;;;2.30;1.20;;;;;;;;;;5079338;28;20486;-83
2022/04/10 11:20:03;;;;;;;2.92;1.17;;;;;;;;;;5097949;28;20386;-83
2022/04/10 11:22:33;;;;;;;2.90;1.20;;;;;;;;;;5078999;28;20020;-83
2022/04/10 11:25:00;;;;;;;1.08;0.82;;;;;;;;;;5078652;28;20052;-83
2022/04/10 11:27:45;;;;;;;1.65;0.95;;;;;;;;;;5079055;28;20019;-82
2022/04/10 11:30:13;;;;;;;1.92;0.93;;;;;;;;;;5097191;28;20032;-83
2022/04/10 11:32:54;;;;;;;1.52;0.98;;;;;;;;;;5078817;28;20383;-83
2022/04/10 11:35:22;;;;;;;1.88;1.20;;;;;;;;;;5078951;28;20023;-83
2022/04/10 11:37:51;;;;;;;3.42;1.00;;;;;;;;;;5078708;28;20023;-83
2022/04/10 11:40:30;;;;;;;1.95;1.10;;;;;;;;;;5078732;28;20081;-82
2022/04/10 11:42:57;;;;;;;2.33;0.82;;;;;;;;;;5079247;28;20062;-82
2022/04/10 11:45:24;;;;;;;1.13;0.65;;;;;;;;;;5062286;28;20063;-82
2022/04/10 11:47:50;;;;;;;2.70;1.00;;;;;;;;;;5079056;28;20026;-83
2022/04/10 11:50:18;;;;;;;2.92;1.60;;;;;;;;;;5079346;28;20024;-83
2022/04/10 11:52:57;;;;;;;6.43;1.50;;;;;;;;;;5078196;28;20368;-82
2022/04/10 11:55:31;;;;;;;2.65;1.00;;;;;;;;;;5061270;28;20047;-82
2022/04/10 11:57:57;;;;;;;4.72;1.50;;;;;;;;;;5061611;28;20028;-82
2022/04/10 12:00:22;;;;;;;7.25;1.70;;;;;;;;;;5096625;28;20089;-83
2022/04/10 12:02:53;;;;;;;4.95;1.60;;;;;;;;;;5061329;28;20046;-83
2022/04/10 12:05:31;;;;;;;3.90;1.10;;;;;;;;;;5096566;28;20032;-83
2022/04/10 12:08:01;;;;;;;2.72;1.30;;;;;;;;;;5095905;28;20027;-83
2022/04/10 12:10:26;;;;;;;6.07;1.20;;;;;;;;;;5077779;28;20557;-84
2022/04/10 12:12:52;;;;;;;8.60;1.02;;;;;;;;;;5095105;28;20032;-84
2022/04/10 12:15:19;;;;;;;3.45;1.10;;;;;;;;;;5077873;28;20465;-84
2022/04/10 12:17:48;;;;;;;2.30;1.15;;;;;;;;;;5096058;28;20107;-84
2022/04/10 12:20:14;;;;;;;3.58;1.13;;;;;;;;;;5078032;28;20032;-83
2022/04/10 12:22:41;;;;;;;2.30;1.02;;;;;;;;;;5078323;28;20052;-83
2022/04/10 12:25:07;;;;;;;3.88;1.15;;;;;;;;;;5061114;28;20173;-83
2022/04/10 12:27:33;;;;;;;2.58;1.00;;;;;;;;;;5078179;28;20119;-83
2022/04/10 12:30:01;;;;;;;7.70;1.45;;;;;;;;;;5095656;28;20071;-83
2022/04/10 12:32:27;;;;;;;2.53;1.88;;;;;;;;;;5077318;28;20028;-83
2022/04/10 12:34:53;;;;;;;4.22;1.33;;;;;;;;;;5078139;28;20036;-82
2022/04/10 12:37:19;;;;;;;2.58;0.90;;;;;;;;;;5060852;28;20027;-83
2022/04/10 12:39:48;;;;;;;4.78;1.00;;;;;;;;;;5095841;28;20032;-83
2022/04/10 12:42:20;;;;;;;1.05;0.70;;;;;;;;;;5095687;28;20052;-84
2022/04/10 12:44:55;;;;;;;1.60;0.90;;;;;;;;;;5078247;28;20039;-84
2022/04/10 12:47:47;;;;;;;3.72;1.30;;;;;;;;;;5077481;28;20073;-84
2022/04/10 12:50:18;;;;;;;3.00;0.90;;;;;;;;;;5094615;28;20043;-82
2022/04/10 12:52:44;;;;;;;2.40;1.10;;;;;;;;;;5060980;28;20051;-82
2022/04/10 12:55:22;;;;;;;2.17;1.00;;;;;;;;;;5095910;28;20028;-82
2022/04/10 12:58:04;;;;;;;1.63;0.85;;;;;;;;;;5095531;28;20027;-82
2022/04/10 13:00:35;;;;;;;2.45;1.00;;;;;;;;;;5095172;28;20027;-82
2022/04/10 13:03:22;;;;;;;3.03;1.00;;;;;;;;;;5060212;28;20112;-84
2022/04/10 13:06:04;;;;;;;3.50;1.10;;;;;;;;;;5077020;28;20028;-83
2022/04/10 13:08:37;;;;;;;2.85;1.25;;;;;;;;;;5095202;28;20478;-83
2022/04/10 13:11:06;;;;;;;1.63;0.82;;;;;;;;;;5095098;28;20032;-83
2022/04/10 13:13:54;;;;;;;2.10;0.90;;;;;;;;;;5076579;28;20047;-83
2022/04/10 13:16:26;;;;;;;3.05;1.38;;;;;;;;;;5094734;28;20035;-83
2022/04/10 13:18:51;;;;;;;3.45;1.25;;;;;;;;;;5095181;28;20039;-84
2022/04/10 13:21:17;;;;;;;3.88;1.38;;;;;;;;;;5076572;28;20029;-84
2022/04/10 13:23:42;;;;;;;3.55;1.10;;;;;;;;;;5076230;28;20047;-84
2022/04/10 13:26:08;;;;;;;4.40;1.45;;;;;;;;;;5094839;28;20034;-84
2022/04/10 13:28:33;;;;;;;4.05;1.40;;;;;;;;;;5094365;28;20035;-84
2022/04/10 13:30:58;;;;;;;1.95;1.02;;;;;;;;;;5094668;28;20056;-84
2022/04/10 13:33:24;;;;;;;2.88;1.20;;;;;;;;;;5076268;28;20042;-84
2022/04/10 13:35:49;;;;;;;5.10;1.27;;;;;;;;;;5094245;28;20107;-84
2022/04/10 13:38:15;;;;;;;2.65;1.05;;;;;;;;;;5076857;28;20332;-84
2022/04/10 13:40:40;;;;;;;3.90;1.27;;;;;;;;;;5059621;28;20042;-84
2022/04/10 13:43:05;;;;;;;3.38;1.50;;;;;;;;;;5096164;28;20032;-83
2022/04/10 13:45:31;;;;;;;3.38;1.08;;;;;;;;;;5103018;28;20059;-84
2022/04/10 13:47:56;;;;;;;3.63;1.27;;;;;;;;;;5067507;28;20020;-84
2022/04/10 13:50:22;;;;;;;3.08;1.15;;;;;;;;;;5061514;28;20032;-84
2022/04/10 13:52:47;;;;;;;5.90;1.13;;;;;;;;;;5076074;28;20028;-84
2022/04/10 13:55:13;;;;;;;2.75;1.38;;;;;;;;;;5059326;28;20035;-84
2022/04/10 13:57:38;;;;;;;4.22;0.95;;;;;;;;;;5094005;28;20035;-84
2022/04/10 14:00:05;;;;;;;4.32;1.10;;;;;;;;;;5076012;28;20024;-83
2022/04/10 14:02:31;;;;;;;3.33;1.20;;;;;;;;;;5093853;28;20081;-84
2022/04/10 14:04:56;;;;;;;4.32;1.10;;;;;;;;;;5075642;28;20024;-84
2022/04/10 14:07:21;;;;;;;3.70;1.05;;;;;;;;;;5094066;28;20055;-84
2022/04/10 14:09:47;;;;;;;3.10;1.45;;;;;;;;;;5075975;28;20043;-84
2022/04/10 14:12:12;;;;;;;2.78;1.20;;;;;;;;;;5094068;28;20032;-84
2022/04/10 14:14:38;;;;;;;1.88;0.95;;;;;;;;;;5094309;28;20032;-84
2022/04/10 14:17:03;;;;;;;2.70;0.95;;;;;;;;;;5058817;28;20039;-83
2022/04/10 14:19:29;;;;;;;1.95;1.10;;;;;;;;;;5058868;28;20047;-84
2022/04/10 14:21:55;;;;;;;2.95;1.15;;;;;;;;;;5076194;28;20028;-83
2022/04/10 14:24:20;;;;;;;2.78;0.90;;;;;;;;;;5075232;28;20051;-83
2022/04/10 14:26:46;;;;;;;1.95;1.00;;;;;;;;;;5075777;28;20398;-83
2022/04/10 14:29:12;;;;;;;4.65;1.08;;;;;;;;;;5076006;28;20024;-84
2022/04/10 14:31:39;;;;;;;1.65;0.80;;;;;;;;;;5079004;28;20027;-84
2022/04/10 14:34:05;;;;;;;1.80;0.80;;;;;;;;;;5096653;28;20028;-84
2022/04/10 14:36:31;;;;;;;2.17;1.05;;;;;;;;;;5097020;28;20467;-83
2022/04/10 14:38:56;;;;;;;1.67;0.88;;;;;;;;;;5081118;28;20034;-84
2022/04/10 14:41:22;;;;;;;1.08;0.95;;;;;;;;;;5099347;28;20114;-84
2022/04/10 14:43:48;;;;;;;5.22;1.10;;;;;;;;;;5083046;28;20425;-84
2022/04/10 14:46:13;;;;;;;2.17;0.70;;;;;;;;;;5086581;28;20024;-84
2022/04/10 14:48:39;;;;;;;1.70;0.95;;;;;;;;;;5085171;28;20067;-85